createdAt,value
2022-11-24T05:00:59.902Z,6.83
2022-11-24T05:05:11.451Z,6.83
2022-11-24T05:09:32.514Z,6.85
2022-11-24T05:13:53.476Z,6.88
2022-11-24T05:18:07.052Z,6.86
2022-11-24T05:22:18.561Z,6.89
2022-11-24T05:26:30.137Z,6.87
2022-11-24T05:30:42.335Z,6.85
2022-11-24T05:34:54.584Z,6.89
2022-11-24T05:39:06.100Z,6.85
2022-11-24T05:43:17.957Z,6.84
2022-11-24T05:47:29.461Z,6.90
2022-11-24T05:51:41.162Z,6.93
2022-11-24T05:55:52.683Z,6.96
2022-11-24T06:00:07.385Z,7.00
2022-11-24T06:04:23.878Z,7.03
2022-11-24T06:08:35.367Z,7.10
2022-11-24T06:12:46.931Z,7.03
2022-11-24T06:16:58.567Z,7.06
2022-11-24T06:21:11.760Z,7.10
2022-11-24T06:25:23.716Z,7.11
2022-11-24T06:29:35.209Z,7.06
2022-11-24T06:33:47.632Z,7.07
2022-11-24T06:37:59.204Z,7.06
2022-11-24T06:42:10.758Z,7.02
2022-11-24T06:46:22.686Z,7.03
2022-11-24T06:50:34.237Z,7.05
2022-11-24T06:54:45.730Z,7.02
2022-11-24T06:58:57.205Z,7.05
2022-11-24T07:03:15.473Z,7.08
2022-11-24T07:07:27.115Z,7.09
2022-11-24T07:11:39.730Z,7.13
2022-11-24T07:15:51.264Z,7.21
2022-11-24T07:20:03.236Z,7.12
2022-11-24T07:24:14.844Z,7.11
2022-11-24T07:28:26.391Z,7.16
2022-11-24T07:32:38.000Z,7.18
2022-11-24T07:36:50.099Z,7.11
2022-11-24T07:41:08.322Z,7.28
2022-11-24T07:45:20.007Z,7.29
2022-11-24T07:49:31.646Z,7.25
2022-11-24T07:53:43.562Z,7.31
2022-11-24T07:57:55.070Z,7.33
2022-11-24T08:02:06.687Z,7.34
2022-11-24T08:06:32.294Z,7.42
2022-11-24T08:10:47.672Z,7.47
2022-11-24T08:14:59.198Z,7.50
2022-11-24T08:19:11.960Z,7.59
2022-11-24T08:23:23.438Z,7.60
2022-11-24T08:27:34.991Z,7.69
2022-11-24T08:31:46.642Z,7.84
2022-11-24T08:36:06.733Z,7.87
2022-11-24T08:40:18.247Z,7.89
2022-11-24T08:44:29.821Z,7.84
2022-11-24T08:48:41.681Z,7.88
2022-11-24T08:52:53.747Z,7.98
2022-11-24T08:57:05.267Z,8.13
2022-11-24T09:01:17.763Z,8.16
2022-11-24T09:05:51.101Z,8.23
2022-11-24T09:10:00.927Z,8.21
2022-11-24T09:14:12.444Z,8.29
2022-11-24T09:18:27.580Z,8.36
2022-11-24T09:22:43.037Z,8.33
2022-11-24T09:26:55.604Z,8.32
2022-11-24T09:31:13.012Z,8.30
2022-11-24T09:35:25.021Z,8.32
2022-11-24T09:39:36.808Z,8.22
2022-11-24T09:44:08.675Z,8.19
2022-11-24T09:48:30.477Z,8.16
2022-11-24T09:53:03.454Z,8.18
2022-11-24T09:57:17.680Z,8.22
2022-11-24T10:01:37.513Z,8.27
2022-11-24T10:05:51.091Z,8.24
2022-11-24T10:10:25.237Z,8.31
2022-11-24T10:14:55.972Z,8.38
2022-11-24T10:19:22.306Z,8.40
2022-11-24T10:23:43.806Z,8.44
2022-11-24T10:28:03.115Z,8.48
2022-11-24T10:32:24.115Z,8.53
2022-11-24T10:36:56.889Z,8.74
2022-11-24T10:41:16.528Z,8.78
2022-11-24T10:45:28.614Z,8.81
2022-11-24T10:49:40.142Z,8.80
2022-11-24T10:54:08.150Z,8.84
2022-11-24T10:58:35.836Z,8.77
2022-11-24T11:02:50.240Z,8.77
2022-11-24T11:07:28.128Z,8.76
2022-11-24T11:11:40.070Z,8.82
2022-11-24T11:15:51.631Z,8.86
2022-11-24T11:20:06.975Z,8.88
2022-11-24T11:24:18.619Z,8.87
2022-11-24T11:28:30.173Z,8.92
2022-11-24T11:37:33.181Z,8.97
2022-11-24T11:41:49.516Z,9.16
2022-11-24T11:46:12.108Z,9.57
2022-11-24T11:50:31.731Z,9.65
2022-11-24T11:55:02.301Z,9.63
2022-11-24T11:59:36.337Z,9.83
2022-11-24T12:04:25.055Z,10.02
2022-11-24T12:09:20.727Z,10.08
2022-11-24T12:13:51.938Z,10.04
2022-11-24T12:18:55.394Z,9.93
2022-11-24T12:23:11.361Z,9.87
2022-11-24T12:27:48.524Z,9.73
2022-11-24T12:32:11.728Z,9.68
2022-11-24T12:36:49.125Z,9.70
2022-11-24T12:41:40.996Z,9.64
2022-11-24T12:46:12.518Z,9.55
2022-11-24T12:50:30.557Z,9.51
2022-11-24T12:54:42.103Z,9.48
2022-11-24T12:59:20.801Z,9.40
2022-11-24T13:04:01.693Z,9.39
2022-11-24T13:08:14.158Z,9.48
2022-11-24T13:12:25.709Z,9.50
2022-11-24T13:21:51.709Z,9.38
2022-11-24T13:26:30.685Z,9.43
2022-11-24T13:30:45.182Z,9.63
2022-11-24T13:35:03.814Z,9.69
2022-11-24T13:39:21.097Z,9.59
2022-11-24T13:43:32.657Z,9.57
2022-11-24T13:47:47.419Z,9.54
2022-11-24T13:52:37.189Z,9.63
2022-11-24T13:56:48.676Z,9.67
2022-11-24T14:01:19.236Z,9.70
2022-11-24T14:05:38.246Z,9.73
2022-11-24T14:09:53.266Z,9.63
2022-11-24T14:14:20.840Z,9.59
2022-11-24T14:18:34.182Z,9.60
2022-11-24T14:22:45.772Z,9.63
2022-11-24T14:26:57.336Z,9.69
2022-11-24T14:31:18.127Z,9.68
2022-11-24T14:35:35.228Z,9.79
2022-11-24T14:39:46.978Z,10.23
2022-11-24T14:44:20.482Z,10.11
2022-11-24T14:48:38.287Z,9.71
2022-11-24T14:52:54.787Z,9.52
2022-11-24T14:57:06.754Z,9.37
2022-11-24T15:01:28.291Z,9.26
2022-11-24T15:05:58.523Z,9.17
2022-11-24T15:10:36.184Z,9.08
2022-11-24T15:14:54.479Z,8.92
2022-11-24T15:19:07.915Z,8.84
2022-11-24T15:23:30.308Z,8.69
2022-11-24T15:27:41.783Z,8.64
2022-11-24T15:31:53.443Z,8.52
2022-11-24T15:36:05.256Z,8.38
2022-11-24T15:40:17.259Z,8.31
2022-11-24T15:44:29.497Z,8.26
2022-11-24T15:48:41.031Z,8.16
2022-11-24T15:52:52.766Z,8.07
2022-11-24T15:57:04.281Z,7.98
2022-11-24T16:01:16.113Z,7.91
2022-11-24T16:05:27.915Z,7.77
2022-11-24T16:09:39.448Z,7.66
2022-11-24T16:13:53.963Z,7.52
2022-11-24T16:18:06.452Z,7.42
2022-11-24T16:22:18.007Z,7.29
2022-11-24T16:26:29.541Z,7.21
2022-11-24T16:30:41.079Z,7.17
2022-11-24T16:34:52.737Z,7.08
2022-11-24T16:39:04.254Z,7.01
2022-11-24T16:43:15.842Z,6.87
2022-11-24T16:47:27.529Z,6.75
2022-11-24T16:51:39.102Z,6.72
2022-11-24T16:55:57.678Z,6.66
2022-11-24T17:00:10.049Z,6.60
2022-11-24T17:04:21.564Z,6.54
2022-11-24T17:08:39.247Z,6.48
2022-11-24T17:12:50.762Z,6.52
2022-11-24T17:17:04.975Z,6.52
2022-11-24T17:21:21.763Z,6.59
2022-11-24T17:25:33.297Z,6.75
2022-11-24T17:29:44.882Z,6.75
2022-11-24T17:33:58.344Z,6.81
2022-11-24T17:38:09.956Z,6.90
2022-11-24T17:42:21.509Z,6.91
2022-11-24T17:46:33.379Z,6.86
2022-11-24T17:50:44.919Z,6.85
2022-11-24T17:54:57.532Z,6.84
2022-11-24T17:59:09.375Z,6.87
2022-11-24T18:03:21.145Z,6.89
2022-11-24T18:07:36.068Z,6.79
2022-11-24T18:11:47.888Z,6.79
2022-11-24T18:16:04.354Z,6.66
2022-11-24T18:20:15.898Z,6.67
2022-11-24T18:24:27.418Z,6.66
2022-11-24T18:28:38.932Z,6.62
2022-11-24T18:32:50.468Z,6.49
2022-11-24T18:37:01.991Z,6.34
2022-11-24T18:41:14.820Z,6.21
2022-11-24T18:45:26.507Z,6.14
2022-11-24T18:49:38.085Z,5.96
2022-11-24T18:53:53.306Z,5.86
2022-11-24T18:58:04.891Z,5.78
2022-11-24T19:02:16.492Z,5.68
2022-11-24T19:06:33.388Z,5.62
2022-11-24T19:10:45.250Z,5.55
2022-11-24T19:14:56.753Z,5.52
2022-11-24T19:19:10.189Z,5.48
2022-11-24T19:23:22.326Z,5.42
2022-11-24T19:27:34.176Z,5.31
2022-11-24T19:31:46.175Z,5.26
2022-11-24T19:36:06.519Z,5.15
2022-11-24T19:40:18.509Z,5.13
2022-11-24T19:44:30.030Z,5.09
2022-11-24T19:48:47.112Z,5.05
2022-11-24T19:52:58.627Z,4.93
2022-11-24T19:57:10.181Z,4.91
2022-11-24T20:01:29.854Z,4.83
2022-11-24T20:05:41.520Z,4.78
2022-11-24T20:09:53.132Z,4.75
2022-11-24T20:14:06.411Z,4.66
2022-11-24T20:18:17.979Z,4.61
2022-11-24T20:22:29.694Z,4.50
2022-11-24T20:26:45.118Z,4.38
2022-11-24T20:31:01.481Z,4.39
2022-11-24T20:35:18.002Z,4.27
2022-11-24T20:39:29.986Z,4.25
2022-11-24T20:43:42.794Z,4.13
2022-11-24T20:47:54.376Z,4.04
2022-11-24T21:27:54.357Z,3.57
2022-11-24T21:38:19.684Z,3.53
2022-11-24T21:42:31.191Z,3.53
2022-11-24T21:46:48.054Z,3.49
2022-11-24T21:51:02.965Z,3.41
2022-11-24T21:55:14.489Z,3.43
2022-11-24T21:59:25.955Z,3.39
2022-11-24T22:03:37.446Z,3.41
2022-11-24T22:07:50.266Z,3.32
2022-11-24T22:12:01.811Z,3.37
2022-11-24T22:16:16.668Z,3.40
2022-11-24T22:20:28.303Z,3.49
2022-11-24T22:24:40.030Z,3.50
2022-11-24T22:28:53.707Z,3.59
